Wetterdaten: aktuell Mittwoch, 02.09.2026 14:30
Datum Zeit Temp. A. Feuchte A. Luftdruck Regen Wind Richtung Richtung Sonnenschein Solar Taupunkt Windchill Windböen
02.09.2026 14:30 23,6 °C 57 % 1019,7 hPa 0,0 l/m² 6,4 km/h S 180 ° 5 min 874 W/m² 14,6 °C 23,6 °C 11,3 km/h
02.09.2026 14:25 23,7 °C 56 % 1019,8 hPa 0,0 l/m² 6,4 km/h W-SW 247 ° 5 min 657 W/m² 14,4 °C 23,7 °C 12,9 km/h
02.09.2026 14:20 23,4 °C 54 % 1019,9 hPa 0,0 l/m² 6,4 km/h W-SW 247 ° 5 min 629 W/m² 13,6 °C 23,4 °C 12,9 km/h
02.09.2026 14:15 23,6 °C 55 % 1019,8 hPa 0,0 l/m² 6,4 km/h S-SW 202 ° 5 min 650 W/m² 14,0 °C 23,6 °C 12,9 km/h
02.09.2026 14:10 24,0 °C 55 % 1019,9 hPa 0,0 l/m² 6,4 km/h W-SW 247 ° 5 min 701 W/m² 14,4 °C 24,0 °C 11,3 km/h
02.09.2026 14:05 24,2 °C 56 % 1019,9 hPa 0,0 l/m² 6,4 km/h W-SW 247 ° 5 min 919 W/m² 14,9 °C 24,2 °C 12,9 km/h
02.09.2026 14:00 23,6 °C 58 % 1019,8 hPa 0,0 l/m² 8,0 km/h S-SW 202 ° 5 min 960 W/m² 14,8 °C 23,1 °C 16,1 km/h
02.09.2026 13:55 23,7 °C 61 % 1020,0 hPa 0,0 l/m² 3,2 km/h W-SW 247 ° 5 min 889 W/m² 15,7 °C 23,7 °C 9,7 km/h
02.09.2026 13:50 23,3 °C 62 % 1020,0 hPa 0,0 l/m² 3,2 km/h S-SO 157 ° 5 min 861 W/m² 15,6 °C 23,3 °C 8,0 km/h
02.09.2026 13:45 22,7 °C 61 % 1020,1 hPa 0,0 l/m² 4,8 km/h SW 225 ° 5 min 635 W/m² 14,8 °C 22,7 °C 11,3 km/h
02.09.2026 13:40 22,2 °C 64 % 1020,1 hPa 0,0 l/m² 6,4 km/h S 180 ° 5 min 671 W/m² 15,1 °C 22,2 °C 11,3 km/h
02.09.2026 13:35 22,4 °C 61 % 1020,2 hPa 0,0 l/m² 4,8 km/h SW 225 ° 0 min 443 W/m² 14,5 °C 22,4 °C 14,5 km/h
02.09.2026 13:30 22,7 °C 59 % 1020,3 hPa 0,0 l/m² 3,2 km/h S-SW 202 ° 0 min 454 W/m² 14,3 °C 22,7 °C 6,4 km/h
02.09.2026 13:25 22,5 °C 60 % 1020,4 hPa 0,0 l/m² 6,4 km/h S 180 ° 5 min 496 W/m² 14,3 °C 22,5 °C 14,5 km/h
02.09.2026 13:20 22,6 °C 63 % 1020,4 hPa 0,0 l/m² 4,8 km/h S-SW 202 ° 5 min 536 W/m² 15,2 °C 22,6 °C 14,5 km/h
02.09.2026 13:15 22,3 °C 62 % 1020,3 hPa 0,0 l/m² 4,8 km/h S-SO 157 ° 0 min 425 W/m² 14,7 °C 22,3 °C 8,0 km/h
02.09.2026 13:10 22,1 °C 60 % 1020,4 hPa 0,0 l/m² 6,4 km/h S-SW 202 ° 0 min 436 W/m² 14,0 °C 22,1 °C 12,9 km/h
02.09.2026 13:05 22,5 °C 59 % 1020,4 hPa 0,0 l/m² 6,4 km/h S-SW 202 ° 5 min 501 W/m² 14,1 °C 22,5 °C 12,9 km/h
02.09.2026 13:00 22,5 °C 62 % 1020,4 hPa 0,0 l/m² 6,4 km/h S-SO 157 ° 5 min 503 W/m² 14,8 °C 22,5 °C 11,3 km/h
02.09.2026 12:55 23,2 °C 59 % 1020,4 hPa 0,0 l/m² 6,4 km/h SO 135 ° 5 min 682 W/m² 14,7 °C 23,2 °C 11,3 km/h
02.09.2026 12:50 22,3 °C 61 % 1020,5 hPa 0,0 l/m² 6,4 km/h S-SW 202 ° 5 min 717 W/m² 14,4 °C 22,3 °C 11,3 km/h
02.09.2026 12:45 23,0 °C 62 % 1020,5 hPa 0,0 l/m² 4,8 km/h SO 135 ° 5 min 677 W/m² 15,3 °C 23,0 °C 11,3 km/h
02.09.2026 12:40 22,1 °C 64 % 1020,5 hPa 0,0 l/m² 4,8 km/h S-SO 157 ° 5 min 603 W/m² 15,0 °C 22,1 °C 8,0 km/h
02.09.2026 12:35 21,9 °C 63 % 1020,5 hPa 0,0 l/m² 3,2 km/h S-SO 157 ° 0 min 473 W/m² 14,5 °C 21,9 °C 8,0 km/h
02.09.2026 12:30 22,0 °C 62 % 1020,4 hPa 0,0 l/m² 6,4 km/h SO 135 ° 5 min 543 W/m² 14,4 °C 22,0 °C 11,3 km/h
02.09.2026 12:25 22,0 °C 67 % 1020,5 hPa 0,0 l/m² 3,2 km/h S-SW 202 ° 5 min 522 W/m² 15,6 °C 22,0 °C 6,4 km/h
02.09.2026 12:20 21,8 °C 65 % 1020,6 hPa 0,0 l/m² 4,8 km/h S-SW 202 ° 5 min 610 W/m² 14,9 °C 21,8 °C 9,7 km/h
02.09.2026 12:15 22,3 °C 65 % 1020,6 hPa 0,0 l/m² 3,2 km/h O-SO 112 ° 5 min 647 W/m² 15,4 °C 22,3 °C 9,7 km/h
02.09.2026 12:10 22,2 °C 61 % 1020,8 hPa 0,0 l/m² 3,2 km/h S-SO 157 ° 5 min 577 W/m² 14,3 °C 22,2 °C 8,0 km/h
02.09.2026 12:05 22,0 °C 66 % 1020,8 hPa 0,0 l/m² 3,2 km/h S 180 ° 5 min 478 W/m² 15,3 °C 22,0 °C 8,0 km/h
02.09.2026 12:00 22,0 °C 66 % 1020,9 hPa 0,0 l/m² 3,2 km/h S 180 ° 5 min 571 W/m² 15,3 °C 22,0 °C 9,7 km/h
02.09.2026 11:55 21,4 °C 69 % 1020,9 hPa 0,0 l/m² 1,6 km/h S 180 ° 5 min 628 W/m² 15,5 °C 21,4 °C 4,8 km/h
02.09.2026 11:50 20,9 °C 67 % 1020,9 hPa 0,0 l/m² 3,2 km/h S 180 ° 5 min 492 W/m² 14,5 °C 20,9 °C 6,4 km/h
02.09.2026 11:45 20,9 °C 70 % 1020,9 hPa 0,0 l/m² 3,2 km/h S 180 ° 0 min 450 W/m² 15,2 °C 20,9 °C 4,8 km/h
02.09.2026 11:40 20,9 °C 72 % 1020,8 hPa 0,0 l/m² 3,2 km/h S 180 ° 5 min 508 W/m² 15,7 °C 20,9 °C 9,7 km/h
02.09.2026 11:35 21,2 °C 71 % 1020,9 hPa 0,0 l/m² 3,2 km/h S 180 ° 5 min 547 W/m² 15,7 °C 21,2 °C 6,4 km/h
02.09.2026 11:30 20,4 °C 72 % 1020,9 hPa 0,0 l/m² 3,2 km/h S 180 ° 5 min 645 W/m² 15,2 °C 20,4 °C 9,7 km/h
02.09.2026 11:25 20,2 °C 75 % 1021,0 hPa 0,0 l/m² 3,2 km/h S 180 ° 5 min 599 W/m² 15,6 °C 20,2 °C 8,0 km/h
02.09.2026 11:20 20,1 °C 77 % 1020,9 hPa 0,0 l/m² 1,6 km/h S 180 ° 0 min 388 W/m² 15,9 °C 20,1 °C 4,8 km/h
02.09.2026 11:15 19,8 °C 74 % 1020,9 hPa 0,0 l/m² 3,2 km/h S 180 ° 0 min 295 W/m² 15,0 °C 19,8 °C 8,0 km/h
02.09.2026 11:10 19,8 °C 73 % 1021,0 hPa 0,0 l/m² 4,8 km/h S 180 ° 0 min 302 W/m² 14,8 °C 19,8 °C 8,0 km/h
02.09.2026 11:05 19,8 °C 71 % 1021,0 hPa 0,0 l/m² 4,8 km/h S 180 ° 0 min 255 W/m² 14,4 °C 19,8 °C 8,0 km/h
02.09.2026 11:00 19,9 °C 72 % 1020,9 hPa 0,0 l/m² 1,6 km/h S 180 ° 0 min 309 W/m² 14,7 °C 19,9 °C 6,4 km/h
02.09.2026 10:55 19,9 °C 74 % 1021,0 hPa 0,0 l/m² 4,8 km/h S 180 ° 0 min 327 W/m² 15,1 °C 19,9 °C 8,0 km/h
02.09.2026 10:50 20,2 °C 73 % 1021,0 hPa 0,0 l/m² 4,8 km/h S-SW 202 ° 5 min 480 W/m² 15,2 °C 20,2 °C 9,7 km/h
02.09.2026 10:45 20,0 °C 73 % 1021,0 hPa 0,0 l/m² 3,2 km/h S-SW 202 ° 5 min 459 W/m² 15,0 °C 20,0 °C 4,8 km/h
02.09.2026 10:40 19,8 °C 73 % 1021,0 hPa 0,0 l/m² 3,2 km/h S-SW 202 ° 0 min 387 W/m² 14,8 °C 19,8 °C 6,4 km/h
02.09.2026 10:35 19,4 °C 77 % 1020,9 hPa 0,0 l/m² 4,8 km/h S-SW 202 ° 0 min 295 W/m² 15,3 °C 19,4 °C 6,4 km/h
02.09.2026 10:30 19,3 °C 75 % 1020,9 hPa 0,0 l/m² 3,2 km/h SW 225 ° 0 min 281 W/m² 14,8 °C 19,3 °C 6,4 km/h
02.09.2026 10:25 19,3 °C 75 % 1020,9 hPa 0,0 l/m² 3,2 km/h SW 225 ° 0 min 385 W/m² 14,8 °C 19,3 °C 6,4 km/h
02.09.2026 10:20 19,5 °C 77 % 1020,9 hPa 0,0 l/m² 3,2 km/h SW 225 ° 5 min 466 W/m² 15,4 °C 19,5 °C 8,0 km/h
02.09.2026 10:15 19,4 °C 77 % 1020,8 hPa 0,0 l/m² 4,8 km/h SW 225 ° 5 min 575 W/m² 15,3 °C 19,4 °C 8,0 km/h
02.09.2026 10:10 19,6 °C 77 % 1020,7 hPa 0,0 l/m² 4,8 km/h S 180 ° 5 min 617 W/m² 15,5 °C 19,6 °C 8,0 km/h
02.09.2026 10:05 19,4 °C 77 % 1020,7 hPa 0,0 l/m² 3,2 km/h S 180 ° 5 min 573 W/m² 15,3 °C 19,4 °C 4,8 km/h
02.09.2026 10:00 18,7 °C 80 % 1020,7 hPa 0,0 l/m² 3,2 km/h S 180 ° 5 min 578 W/m² 15,2 °C 18,7 °C 6,4 km/h
02.09.2026 09:55 18,3 °C 82 % 1020,8 hPa 0,0 l/m² 4,8 km/h S-SW 202 ° 5 min 448 W/m² 15,2 °C 18,3 °C 6,4 km/h
02.09.2026 09:50 18,2 °C 81 % 1020,8 hPa 0,0 l/m² 4,8 km/h S 180 ° 5 min 570 W/m² 14,9 °C 18,2 °C 8,0 km/h
02.09.2026 09:45 18,0 °C 82 % 1020,8 hPa 0,0 l/m² 6,4 km/h S-SO 157 ° 5 min 573 W/m² 14,9 °C 18,0 °C 8,0 km/h
02.09.2026 09:40 17,7 °C 82 % 1020,8 hPa 0,0 l/m² 6,4 km/h S-SO 157 ° 5 min 510 W/m² 14,6 °C 17,7 °C 9,7 km/h
02.09.2026 09:35 17,6 °C 84 % 1020,7 hPa 0,0 l/m² 4,8 km/h S-SO 157 ° 5 min 469 W/m² 14,9 °C 17,6 °C 8,0 km/h
02.09.2026 09:30 17,3 °C 82 % 1020,6 hPa 0,0 l/m² 1,6 km/h S-SO 157 ° 5 min 380 W/m² 14,2 °C 17,3 °C 6,4 km/h
02.09.2026 09:25 17,5 °C 80 % 1020,6 hPa 0,0 l/m² 4,8 km/h S-SO 157 ° 5 min 422 W/m² 14,0 °C 17,5 °C 8,0 km/h
02.09.2026 09:20 17,5 °C 81 % 1020,7 hPa 0,0 l/m² 3,2 km/h S-SO 157 ° 5 min 452 W/m² 14,2 °C 17,5 °C 6,4 km/h
02.09.2026 09:15 17,3 °C 83 % 1020,7 hPa 0,0 l/m² 3,2 km/h S-SO 157 ° 5 min 432 W/m² 14,4 °C 17,3 °C 4,8 km/h
02.09.2026 09:10 16,9 °C 81 % 1020,8 hPa 0,0 l/m² 3,2 km/h SO 135 ° 5 min 399 W/m² 13,6 °C 16,9 °C 4,8 km/h
02.09.2026 09:05 16,9 °C 81 % 1020,8 hPa 0,0 l/m² 3,2 km/h O-NO 67 ° 5 min 374 W/m² 13,6 °C 16,9 °C 6,4 km/h
02.09.2026 09:00 16,8 °C 82 % 1020,8 hPa 0,0 l/m² 1,6 km/h NO 45 ° 5 min 369 W/m² 13,7 °C 16,8 °C 4,8 km/h
02.09.2026 08:55 16,6 °C 82 % 1020,8 hPa 0,0 l/m² 1,6 km/h NO 45 ° 5 min 350 W/m² 13,5 °C 16,6 °C 3,2 km/h
02.09.2026 08:50 16,5 °C 84 % 1020,8 hPa 0,0 l/m² 0,0 km/h N 0 ° 5 min 343 W/m² 13,8 °C 16,5 °C 0,0 km/h
02.09.2026 08:45 16,2 °C 86 % 1020,8 hPa 0,0 l/m² 3,2 km/h N-NO 22 ° 5 min 338 W/m² 13,9 °C 16,2 °C 4,8 km/h
02.09.2026 08:40 15,6 °C 86 % 1020,9 hPa 0,0 l/m² 3,2 km/h N-NO 22 ° 5 min 320 W/m² 13,3 °C 15,6 °C 4,8 km/h
02.09.2026 08:35 14,8 °C 88 % 1020,9 hPa 0,0 l/m² 1,6 km/h N-NO 22 ° 5 min 304 W/m² 12,8 °C 14,8 °C 4,8 km/h
02.09.2026 08:30 14,5 °C 89 % 1020,8 hPa 0,0 l/m² 0,0 km/h N 0 ° 5 min 287 W/m² 12,7 °C 14,5 °C 0,0 km/h
02.09.2026 08:25 14,2 °C 89 % 1020,8 hPa 0,0 l/m² 0,0 km/h N 0 ° 5 min 271 W/m² 12,4 °C 14,2 °C 0,0 km/h
02.09.2026 08:20 13,9 °C 89 % 1020,8 hPa 0,0 l/m² 0,0 km/h N 0 ° 5 min 251 W/m² 12,1 °C 13,9 °C 0,0 km/h
02.09.2026 08:15 13,6 °C 90 % 1020,9 hPa 0,0 l/m² 0,0 km/h N 0 ° 5 min 244 W/m² 12,0 °C 13,6 °C 0,0 km/h
02.09.2026 08:10 13,3 °C 91 % 1020,8 hPa 0,0 l/m² 0,0 km/h N 0 ° 5 min 227 W/m² 11,9 °C 13,3 °C 0,0 km/h
02.09.2026 08:05 13,1 °C 92 % 1020,9 hPa 0,0 l/m² 0,0 km/h N-NO 22 ° 5 min 200 W/m² 11,8 °C 13,1 °C 1,6 km/h
02.09.2026 08:00 12,8 °C 91 % 1020,9 hPa 0,0 l/m² 0,0 km/h N 0 ° 5 min 192 W/m² 11,4 °C 12,8 °C 0,0 km/h
02.09.2026 07:55 12,4 °C 92 % 1020,8 hPa 0,0 l/m² 0,0 km/h N 0 ° 0 min 95 W/m² 11,1 °C 12,4 °C 0,0 km/h
02.09.2026 07:50 12,3 °C 92 % 1020,7 hPa 0,0 l/m² 0,0 km/h N-NO 22 ° 0 min 123 W/m² 11,0 °C 12,3 °C 1,6 km/h
02.09.2026 07:45 12,1 °C 92 % 1020,7 hPa 0,0 l/m² 1,6 km/h N-NO 22 ° 0 min 130 W/m² 10,8 °C 12,1 °C 4,8 km/h
02.09.2026 07:40 11,9 °C 92 % 1020,7 hPa 0,0 l/m² 0,0 km/h N-NO 22 ° 0 min 121 W/m² 10,6 °C 11,9 °C 1,6 km/h
02.09.2026 07:35 11,8 °C 92 % 1020,6 hPa 0,0 l/m² 0,0 km/h N-NO 22 ° 0 min 113 W/m² 10,5 °C 11,8 °C 1,6 km/h
02.09.2026 07:30 11,7 °C 92 % 1020,5 hPa 0,0 l/m² 0,0 km/h N-NO 22 ° 0 min 102 W/m² 10,4 °C 11,7 °C 3,2 km/h
02.09.2026 07:25 11,6 °C 92 % 1020,5 hPa 0,0 l/m² 0,0 km/h N-NO 22 ° 0 min 90 W/m² 10,3 °C 11,6 °C 1,6 km/h
02.09.2026 07:20 11,5 °C 92 % 1020,5 hPa 0,0 l/m² 0,0 km/h N-NO 22 ° 0 min 77 W/m² 10,2 °C 11,5 °C 1,6 km/h
02.09.2026 07:15 11,4 °C 92 % 1020,5 hPa 0,0 l/m² 0,0 km/h N-NO 22 ° 0 min 37 W/m² 10,1 °C 11,4 °C 3,2 km/h
02.09.2026 07:10 11,4 °C 91 % 1020,5 hPa 0,0 l/m² 0,0 km/h N-NO 22 ° 0 min 47 W/m² 10,0 °C 11,4 °C 4,8 km/h
02.09.2026 07:05 11,4 °C 91 % 1020,5 hPa 0,0 l/m² 1,6 km/h N-NO 22 ° 0 min 46 W/m² 10,0 °C 11,4 °C 3,2 km/h
02.09.2026 07:00 11,4 °C 91 % 1020,4 hPa 0,0 l/m² 0,0 km/h N-NO 22 ° 0 min 21 W/m² 10,0 °C 11,4 °C 3,2 km/h
02.09.2026 06:55 11,4 °C 91 % 1020,4 hPa 0,0 l/m² 0,0 km/h N-NO 22 ° 0 min 16 W/m² 10,0 °C 11,4 °C 3,2 km/h
02.09.2026 06:50 11,4 °C 91 % 1020,4 hPa 0,0 l/m² 1,6 km/h N-NO 22 ° 0 min 14 W/m² 10,0 °C 11,4 °C 3,2 km/h
02.09.2026 06:45 11,4 °C 91 % 1020,4 hPa 0,0 l/m² 1,6 km/h N-NO 22 ° 0 min 11 W/m² 10,0 °C 11,4 °C 4,8 km/h
02.09.2026 06:40 11,5 °C 91 % 1020,4 hPa 0,0 l/m² 1,6 km/h N-NO 22 ° 0 min 7 W/m² 10,1 °C 11,5 °C 6,4 km/h
02.09.2026 06:35 11,6 °C 91 % 1020,4 hPa 0,0 l/m² 1,6 km/h N-NO 22 ° 0 min 5 W/m² 10,2 °C 11,6 °C 4,8 km/h
02.09.2026 06:30 11,6 °C 91 % 1020,4 hPa 0,0 l/m² 3,2 km/h N-NO 22 ° 0 min 0 W/m² 10,2 °C 11,6 °C 6,4 km/h
02.09.2026 06:25 11,6 °C 90 % 1020,3 hPa 0,0 l/m² 1,6 km/h N-NO 22 ° 0 min 0 W/m² 10,0 °C 11,6 °C 4,8 km/h
02.09.2026 06:20 11,7 °C 90 % 1020,3 hPa 0,0 l/m² 0,0 km/h N-NO 22 ° 0 min 0 W/m² 10,1 °C 11,7 °C 3,2 km/h
02.09.2026 06:15 11,7 °C 90 % 1020,3 hPa 0,0 l/m² 1,6 km/h N-NO 22 ° 0 min 0 W/m² 10,1 °C 11,7 °C 4,8 km/h
02.09.2026 06:10 11,7 °C 90 % 1020,4 hPa 0,0 l/m² 0,0 km/h N-NO 22 ° 0 min 0 W/m² 10,1 °C 11,7 °C 3,2 km/h
02.09.2026 06:05 11,8 °C 90 % 1020,3 hPa 0,0 l/m² 1,6 km/h N-NO 22 ° 0 min 0 W/m² 10,2 °C 11,8 °C 3,2 km/h
02.09.2026 06:00 11,8 °C 90 % 1020,2 hPa 0,0 l/m² 1,6 km/h N-NO 22 ° 0 min 0 W/m² 10,2 °C 11,8 °C 4,8 km/h
02.09.2026 05:55 11,9 °C 90 % 1020,1 hPa 0,0 l/m² 1,6 km/h N-NO 22 ° 0 min 0 W/m² 10,3 °C 11,9 °C 6,4 km/h
02.09.2026 05:50 11,9 °C 89 % 1020,1 hPa 0,0 l/m² 0,0 km/h N-NO 22 ° 0 min 0 W/m² 10,1 °C 11,9 °C 4,8 km/h
02.09.2026 05:45 12,0 °C 89 % 1020,2 hPa 0,0 l/m² 1,6 km/h N-NO 22 ° 0 min 0 W/m² 10,2 °C 12,0 °C 4,8 km/h
02.09.2026 05:40 12,1 °C 89 % 1020,2 hPa 0,0 l/m² 0,0 km/h N-NO 22 ° 0 min 0 W/m² 10,3 °C 12,1 °C 3,2 km/h
02.09.2026 05:35 12,2 °C 89 % 1020,3 hPa 0,0 l/m² 1,6 km/h N-NO 22 ° 0 min 0 W/m² 10,4 °C 12,2 °C 4,8 km/h
02.09.2026 05:30 12,2 °C 88 % 1020,3 hPa 0,0 l/m² 1,6 km/h N-NO 22 ° 0 min 0 W/m² 10,3 °C 12,2 °C 4,8 km/h
02.09.2026 05:25 12,3 °C 88 % 1020,2 hPa 0,0 l/m² 0,0 km/h N-NO 22 ° 0 min 0 W/m² 10,4 °C 12,3 °C 3,2 km/h
02.09.2026 05:20 12,4 °C 88 % 1020,3 hPa 0,0 l/m² 0,0 km/h N-NO 22 ° 0 min 0 W/m² 10,5 °C 12,4 °C 3,2 km/h
02.09.2026 05:15 12,4 °C 88 % 1020,3 hPa 0,0 l/m² 0,0 km/h N-NO 22 ° 0 min 0 W/m² 10,5 °C 12,4 °C 3,2 km/h
02.09.2026 05:10 12,5 °C 88 % 1020,3 hPa 0,0 l/m² 0,0 km/h N-NO 22 ° 0 min 0 W/m² 10,6 °C 12,5 °C 1,6 km/h
02.09.2026 05:05 12,6 °C 88 % 1020,4 hPa 0,0 l/m² 0,0 km/h N-NO 22 ° 0 min 0 W/m² 10,7 °C 12,6 °C 1,6 km/h
02.09.2026 05:00 12,6 °C 88 % 1020,4 hPa 0,0 l/m² 0,0 km/h N-NO 22 ° 0 min 0 W/m² 10,7 °C 12,6 °C 1,6 km/h
02.09.2026 04:55 12,7 °C 88 % 1020,4 hPa 0,0 l/m² 0,0 km/h N-NO 22 ° 0 min 0 W/m² 10,8 °C 12,7 °C 1,6 km/h
02.09.2026 04:50 12,7 °C 88 % 1020,4 hPa 0,0 l/m² 0,0 km/h N-NO 22 ° 0 min 0 W/m² 10,8 °C 12,7 °C 1,6 km/h
02.09.2026 04:45 12,8 °C 87 % 1020,4 hPa 0,0 l/m² 0,0 km/h N-NO 22 ° 0 min 0 W/m² 10,7 °C 12,8 °C 3,2 km/h
02.09.2026 04:40 12,8 °C 87 % 1020,5 hPa 0,0 l/m² 0,0 km/h N-NO 22 ° 0 min 0 W/m² 10,7 °C 12,8 °C 1,6 km/h
02.09.2026 04:35 12,9 °C 87 % 1020,4 hPa 0,0 l/m² 0,0 km/h N-NO 22 ° 0 min 0 W/m² 10,8 °C 12,9 °C 3,2 km/h
02.09.2026 04:30 12,9 °C 87 % 1020,5 hPa 0,0 l/m² 0,0 km/h N-NO 22 ° 0 min 0 W/m² 10,8 °C 12,9 °C 1,6 km/h
02.09.2026 04:25 13,0 °C 87 % 1020,5 hPa 0,0 l/m² 0,0 km/h N-NO 22 ° 0 min 0 W/m² 10,9 °C 13,0 °C 3,2 km/h
02.09.2026 04:20 13,1 °C 87 % 1020,5 hPa 0,0 l/m² 1,6 km/h N-NO 22 ° 0 min 0 W/m² 11,0 °C 13,1 °C 4,8 km/h
02.09.2026 04:15 13,2 °C 86 % 1020,4 hPa 0,0 l/m² 0,0 km/h N-NO 22 ° 0 min 0 W/m² 10,9 °C 13,2 °C 3,2 km/h
02.09.2026 04:10 13,3 °C 86 % 1020,5 hPa 0,0 l/m² 0,0 km/h N-NO 22 ° 0 min 0 W/m² 11,0 °C 13,3 °C 3,2 km/h
02.09.2026 04:05 13,3 °C 86 % 1020,5 hPa 0,0 l/m² 0,0 km/h N-NO 22 ° 0 min 0 W/m² 11,0 °C 13,3 °C 4,8 km/h
02.09.2026 04:00 13,4 °C 86 % 1020,6 hPa 0,0 l/m² 0,0 km/h N-NO 22 ° 0 min 0 W/m² 11,1 °C 13,4 °C 3,2 km/h
02.09.2026 03:55 13,5 °C 85 % 1020,6 hPa 0,0 l/m² 0,0 km/h N-NO 22 ° 0 min 0 W/m² 11,0 °C 13,5 °C 3,2 km/h
02.09.2026 03:50 13,6 °C 86 % 1020,6 hPa 0,0 l/m² 0,0 km/h N-NO 22 ° 0 min 0 W/m² 11,3 °C 13,6 °C 1,6 km/h
02.09.2026 03:45 13,7 °C 85 % 1020,5 hPa 0,0 l/m² 0,0 km/h N-NO 22 ° 0 min 0 W/m² 11,2 °C 13,7 °C 1,6 km/h
02.09.2026 03:40 13,8 °C 85 % 1020,6 hPa 0,0 l/m² 0,0 km/h N-NO 22 ° 0 min 0 W/m² 11,3 °C 13,8 °C 3,2 km/h
02.09.2026 03:35 13,8 °C 85 % 1020,5 hPa 0,0 l/m² 0,0 km/h N-NO 22 ° 0 min 0 W/m² 11,3 °C 13,8 °C 4,8 km/h
02.09.2026 03:30 13,9 °C 85 % 1020,4 hPa 0,0 l/m² 0,0 km/h N-NO 22 ° 0 min 0 W/m² 11,4 °C 13,9 °C 4,8 km/h
02.09.2026 03:25 13,9 °C 85 % 1020,5 hPa 0,0 l/m² 1,6 km/h N-NO 22 ° 0 min 0 W/m² 11,4 °C 13,9 °C 3,2 km/h
02.09.2026 03:20 14,1 °C 84 % 1020,4 hPa 0,0 l/m² 0,0 km/h N-NO 22 ° 0 min 0 W/m² 11,4 °C 14,1 °C 4,8 km/h
02.09.2026 03:15 14,2 °C 84 % 1020,4 hPa 0,0 l/m² 1,6 km/h N-NO 22 ° 0 min 0 W/m² 11,5 °C 14,2 °C 4,8 km/h
02.09.2026 03:10 14,2 °C 84 % 1020,4 hPa 0,0 l/m² 0,0 km/h N-NO 22 ° 0 min 0 W/m² 11,5 °C 14,2 °C 3,2 km/h
02.09.2026 03:05 14,3 °C 84 % 1020,4 hPa 0,0 l/m² 1,6 km/h N-NO 22 ° 0 min 0 W/m² 11,6 °C 14,3 °C 4,8 km/h
02.09.2026 03:00 14,4 °C 84 % 1020,4 hPa 0,0 l/m² 1,6 km/h N-NO 22 ° 0 min 0 W/m² 11,7 °C 14,4 °C 4,8 km/h
02.09.2026 02:55 14,4 °C 84 % 1020,4 hPa 0,0 l/m² 3,2 km/h N-NO 22 ° 0 min 0 W/m² 11,7 °C 14,4 °C 4,8 km/h
02.09.2026 02:50 14,4 °C 84 % 1020,4 hPa 0,0 l/m² 1,6 km/h N-NO 22 ° 0 min 0 W/m² 11,7 °C 14,4 °C 4,8 km/h
02.09.2026 02:45 14,5 °C 84 % 1020,3 hPa 0,0 l/m² 1,6 km/h N-NO 22 ° 0 min 0 W/m² 11,8 °C 14,5 °C 3,2 km/h
02.09.2026 02:40 14,6 °C 84 % 1020,4 hPa 0,0 l/m² 3,2 km/h N-NO 22 ° 0 min 0 W/m² 11,9 °C 14,6 °C 4,8 km/h
02.09.2026 02:35 14,6 °C 84 % 1020,3 hPa 0,0 l/m² 3,2 km/h N-NO 22 ° 0 min 0 W/m² 11,9 °C 14,6 °C 4,8 km/h
02.09.2026 02:30 14,7 °C 84 % 1020,2 hPa 0,0 l/m² 3,2 km/h N-NO 22 ° 0 min 0 W/m² 12,0 °C 14,7 °C 4,8 km/h
02.09.2026 02:25 14,7 °C 84 % 1020,3 hPa 0,0 l/m² 3,2 km/h N-NO 22 ° 0 min 0 W/m² 12,0 °C 14,7 °C 4,8 km/h
02.09.2026 02:20 14,8 °C 84 % 1020,3 hPa 0,0 l/m² 3,2 km/h N-NO 22 ° 0 min 0 W/m² 12,1 °C 14,8 °C 4,8 km/h
02.09.2026 02:15 14,8 °C 84 % 1020,3 hPa 0,0 l/m² 1,6 km/h N-NO 22 ° 0 min 0 W/m² 12,1 °C 14,8 °C 4,8 km/h
02.09.2026 02:10 14,8 °C 84 % 1020,3 hPa 0,0 l/m² 3,2 km/h N-NO 22 ° 0 min 0 W/m² 12,1 °C 14,8 °C 6,4 km/h
02.09.2026 02:05 14,8 °C 84 % 1020,3 hPa 0,0 l/m² 3,2 km/h N-NO 22 ° 0 min 0 W/m² 12,1 °C 14,8 °C 6,4 km/h
02.09.2026 02:00 14,8 °C 84 % 1020,3 hPa 0,0 l/m² 3,2 km/h N-NO 22 ° 0 min 0 W/m² 12,1 °C 14,8 °C 4,8 km/h
02.09.2026 01:55 14,8 °C 84 % 1020,2 hPa 0,0 l/m² 3,2 km/h N-NO 22 ° 0 min 0 W/m² 12,1 °C 14,8 °C 4,8 km/h
02.09.2026 01:50 14,9 °C 84 % 1020,2 hPa 0,0 l/m² 1,6 km/h N-NO 22 ° 0 min 0 W/m² 12,2 °C 14,9 °C 4,8 km/h
02.09.2026 01:45 15,0 °C 83 % 1020,2 hPa 0,0 l/m² 1,6 km/h N-NO 22 ° 0 min 0 W/m² 12,1 °C 15,0 °C 3,2 km/h
02.09.2026 01:40 15,3 °C 83 % 1020,3 hPa 0,0 l/m² 1,6 km/h N-NO 22 ° 0 min 0 W/m² 12,4 °C 15,3 °C 4,8 km/h
02.09.2026 01:35 15,6 °C 82 % 1020,3 hPa 0,0 l/m² 1,6 km/h N-NO 22 ° 0 min 0 W/m² 12,5 °C 15,6 °C 3,2 km/h
02.09.2026 01:30 15,6 °C 81 % 1020,3 hPa 0,0 l/m² 1,6 km/h N-NO 22 ° 0 min 0 W/m² 12,3 °C 15,6 °C 3,2 km/h
02.09.2026 01:25 15,6 °C 81 % 1020,3 hPa 0,0 l/m² 3,2 km/h N-NO 22 ° 0 min 0 W/m² 12,3 °C 15,6 °C 4,8 km/h
02.09.2026 01:20 15,6 °C 81 % 1020,3 hPa 0,0 l/m² 1,6 km/h N-NO 22 ° 0 min 0 W/m² 12,3 °C 15,6 °C 4,8 km/h
02.09.2026 01:15 15,6 °C 81 % 1020,4 hPa 0,0 l/m² 1,6 km/h N-NO 22 ° 0 min 0 W/m² 12,3 °C 15,6 °C 4,8 km/h
02.09.2026 01:10 15,6 °C 81 % 1020,4 hPa 0,0 l/m² 1,6 km/h N-NO 22 ° 0 min 0 W/m² 12,3 °C 15,6 °C 4,8 km/h
02.09.2026 01:05 15,8 °C 81 % 1020,4 hPa 0,0 l/m² 1,6 km/h N-NO 22 ° 0 min 0 W/m² 12,5 °C 15,8 °C 3,2 km/h
02.09.2026 01:00 15,9 °C 80 % 1020,3 hPa 0,0 l/m² 3,2 km/h N-NO 22 ° 0 min 0 W/m² 12,5 °C 15,9 °C 4,8 km/h
02.09.2026 00:55 16,0 °C 80 % 1020,3 hPa 0,0 l/m² 1,6 km/h N 360 ° 0 min 0 W/m² 12,5 °C 16,0 °C 4,8 km/h
02.09.2026 00:50 15,9 °C 80 % 1020,4 hPa 0,0 l/m² 1,6 km/h N 360 ° 0 min 0 W/m² 12,5 °C 15,9 °C 4,8 km/h
02.09.2026 00:45 15,9 °C 80 % 1020,5 hPa 0,0 l/m² 3,2 km/h N 360 ° 0 min 0 W/m² 12,5 °C 15,9 °C 4,8 km/h
02.09.2026 00:40 16,0 °C 80 % 1020,5 hPa 0,0 l/m² 3,2 km/h N 360 ° 0 min 0 W/m² 12,5 °C 16,0 °C 4,8 km/h
02.09.2026 00:35 16,0 °C 80 % 1020,5 hPa 0,0 l/m² 3,2 km/h N 360 ° 0 min 0 W/m² 12,5 °C 16,0 °C 4,8 km/h
02.09.2026 00:30 16,0 °C 81 % 1020,5 hPa 0,0 l/m² 3,2 km/h N 360 ° 0 min 0 W/m² 12,7 °C 16,0 °C 4,8 km/h
02.09.2026 00:25 16,1 °C 81 % 1020,5 hPa 0,0 l/m² 1,6 km/h N 360 ° 0 min 0 W/m² 12,8 °C 16,1 °C 3,2 km/h
02.09.2026 00:20 16,1 °C 80 % 1020,5 hPa 0,0 l/m² 1,6 km/h N 360 ° 0 min 0 W/m² 12,6 °C 16,1 °C 4,8 km/h
02.09.2026 00:15 16,1 °C 80 % 1020,5 hPa 0,0 l/m² 1,6 km/h N 360 ° 0 min 0 W/m² 12,6 °C 16,1 °C 4,8 km/h
02.09.2026 00:10 16,1 °C 80 % 1020,6 hPa 0,0 l/m² 1,6 km/h N 360 ° 0 min 0 W/m² 12,6 °C 16,1 °C 3,2 km/h
02.09.2026 00:05 16,1 °C 80 % 1020,6 hPa 0,0 l/m² 1,6 km/h N 360 ° 0 min 0 W/m² 12,6 °C 16,1 °C 3,2 km/h
02.09.2026 00:00 16,1 °C 79 % 1020,6 hPa 0,0 l/m² 1,6 km/h N 360 ° 0 min 0 W/m² 12,5 °C 16,1 °C 3,2 km/h
01.09.2026 23:55 16,1 °C 79 % 1020,6 hPa 0,0 l/m² 1,6 km/h N 360 ° 0 min 0 W/m² 12,5 °C 16,1 °C 4,8 km/h
01.09.2026 23:50 16,1 °C 79 % 1020,6 hPa 0,0 l/m² 3,2 km/h N 360 ° 0 min 0 W/m² 12,5 °C 16,1 °C 4,8 km/h
01.09.2026 23:45 15,9 °C 80 % 1020,6 hPa 0,0 l/m² 3,2 km/h N 360 ° 0 min 0 W/m² 12,5 °C 15,9 °C 4,8 km/h
01.09.2026 23:40 16,0 °C 80 % 1020,7 hPa 0,0 l/m² 3,2 km/h N 360 ° 0 min 0 W/m² 12,5 °C 16,0 °C 4,8 km/h
01.09.2026 23:35 16,0 °C 80 % 1020,6 hPa 0,0 l/m² 3,2 km/h N 360 ° 0 min 0 W/m² 12,5 °C 16,0 °C 3,2 km/h
01.09.2026 23:30 15,9 °C 80 % 1020,6 hPa 0,0 l/m² 1,6 km/h N 360 ° 0 min 0 W/m² 12,5 °C 15,9 °C 3,2 km/h
01.09.2026 23:25 16,0 °C 80 % 1020,6 hPa 0,0 l/m² 1,6 km/h N 360 ° 0 min 0 W/m² 12,5 °C 16,0 °C 3,2 km/h
01.09.2026 23:20 16,1 °C 79 % 1020,6 hPa 0,0 l/m² 1,6 km/h N 360 ° 0 min 0 W/m² 12,5 °C 16,1 °C 3,2 km/h
01.09.2026 23:15 16,2 °C 79 % 1020,5 hPa 0,0 l/m² 1,6 km/h N 360 ° 0 min 0 W/m² 12,6 °C 16,2 °C 3,2 km/h
01.09.2026 23:10 16,2 °C 78 % 1020,6 hPa 0,0 l/m² 3,2 km/h N 360 ° 0 min 0 W/m² 12,4 °C 16,2 °C 6,4 km/h
01.09.2026 23:05 16,2 °C 78 % 1020,6 hPa 0,0 l/m² 3,2 km/h N 360 ° 0 min 0 W/m² 12,4 °C 16,2 °C 4,8 km/h
01.09.2026 23:00 16,3 °C 78 % 1020,5 hPa 0,0 l/m² 3,2 km/h N 360 ° 0 min 0 W/m² 12,5 °C 16,3 °C 4,8 km/h
01.09.2026 22:55 16,4 °C 77 % 1020,6 hPa 0,0 l/m² 3,2 km/h N 360 ° 0 min 0 W/m² 12,4 °C 16,4 °C 4,8 km/h
01.09.2026 22:50 16,5 °C 78 % 1020,5 hPa 0,0 l/m² 3,2 km/h N 360 ° 0 min 0 W/m² 12,6 °C 16,5 °C 4,8 km/h
01.09.2026 22:45 16,5 °C 77 % 1020,5 hPa 0,0 l/m² 3,2 km/h N 360 ° 0 min 0 W/m² 12,5 °C 16,5 °C 4,8 km/h
01.09.2026 22:40 16,5 °C 77 % 1020,4 hPa 0,0 l/m² 3,2 km/h N 360 ° 0 min 0 W/m² 12,5 °C 16,5 °C 4,8 km/h
01.09.2026 22:35 16,4 °C 77 % 1020,5 hPa 0,0 l/m² 3,2 km/h N 360 ° 0 min 0 W/m² 12,4 °C 16,4 °C 4,8 km/h
01.09.2026 22:30 16,4 °C 77 % 1020,3 hPa 0,0 l/m² 3,2 km/h N 360 ° 0 min 0 W/m² 12,4 °C 16,4 °C 4,8 km/h
01.09.2026 22:25 16,4 °C 77 % 1020,3 hPa 0,0 l/m² 3,2 km/h N 360 ° 0 min 0 W/m² 12,4 °C 16,4 °C 4,8 km/h
01.09.2026 22:20 16,4 °C 77 % 1020,3 hPa 0,0 l/m² 3,2 km/h N 360 ° 0 min 0 W/m² 12,4 °C 16,4 °C 4,8 km/h
01.09.2026 22:15 16,4 °C 78 % 1020,3 hPa 0,0 l/m² 3,2 km/h N 360 ° 0 min 0 W/m² 12,6 °C 16,4 °C 4,8 km/h
01.09.2026 22:10 16,4 °C 77 % 1020,3 hPa 0,0 l/m² 3,2 km/h N 360 ° 0 min 0 W/m² 12,4 °C 16,4 °C 3,2 km/h
01.09.2026 22:05 16,3 °C 78 % 1020,3 hPa 0,0 l/m² 3,2 km/h N 360 ° 0 min 0 W/m² 12,5 °C 16,3 °C 6,4 km/h
01.09.2026 22:00 16,2 °C 78 % 1020,3 hPa 0,0 l/m² 3,2 km/h NW 315 ° 0 min 0 W/m² 12,4 °C 16,2 °C 4,8 km/h
01.09.2026 21:55 16,2 °C 78 % 1020,3 hPa 0,0 l/m² 1,6 km/h NW 315 ° 0 min 0 W/m² 12,4 °C 16,2 °C 4,8 km/h
01.09.2026 21:50 16,3 °C 78 % 1020,3 hPa 0,0 l/m² 1,6 km/h NW 315 ° 0 min 0 W/m² 12,5 °C 16,3 °C 3,2 km/h
01.09.2026 21:45 16,2 °C 79 % 1020,2 hPa 0,0 l/m² 1,6 km/h NW 315 ° 0 min 0 W/m² 12,6 °C 16,2 °C 3,2 km/h
01.09.2026 21:40 16,1 °C 79 % 1020,3 hPa 0,0 l/m² 1,6 km/h NW 315 ° 0 min 0 W/m² 12,5 °C 16,1 °C 3,2 km/h
01.09.2026 21:35 16,1 °C 79 % 1020,3 hPa 0,0 l/m² 1,6 km/h NW 315 ° 0 min 0 W/m² 12,5 °C 16,1 °C 3,2 km/h
01.09.2026 21:30 16,2 °C 79 % 1020,1 hPa 0,0 l/m² 3,2 km/h NW 315 ° 0 min 0 W/m² 12,6 °C 16,2 °C 6,4 km/h
01.09.2026 21:25 16,2 °C 79 % 1020,1 hPa 0,0 l/m² 1,6 km/h NW 315 ° 0 min 0 W/m² 12,6 °C 16,2 °C 4,8 km/h
01.09.2026 21:20 16,2 °C 79 % 1020,1 hPa 0,0 l/m² 3,2 km/h NW 315 ° 0 min 0 W/m² 12,6 °C 16,2 °C 4,8 km/h
01.09.2026 21:15 16,4 °C 78 % 1020,0 hPa 0,0 l/m² 3,2 km/h NW 315 ° 0 min 0 W/m² 12,6 °C 16,4 °C 4,8 km/h
01.09.2026 21:10 16,6 °C 77 % 1020,0 hPa 0,0 l/m² 3,2 km/h N-NW 337 ° 0 min 0 W/m² 12,5 °C 16,6 °C 4,8 km/h
01.09.2026 21:05 16,7 °C 77 % 1019,9 hPa 0,0 l/m² 1,6 km/h NW 315 ° 0 min 0 W/m² 12,6 °C 16,7 °C 4,8 km/h
01.09.2026 21:00 16,9 °C 77 % 1019,9 hPa 0,0 l/m² 3,2 km/h NW 315 ° 0 min 0 W/m² 12,8 °C 16,9 °C 4,8 km/h
01.09.2026 20:55 17,1 °C 76 % 1019,9 hPa 0,0 l/m² 3,2 km/h NW 315 ° 0 min 0 W/m² 12,8 °C 17,1 °C 4,8 km/h
01.09.2026 20:50 17,2 °C 75 % 1019,8 hPa 0,0 l/m² 3,2 km/h NW 315 ° 0 min 0 W/m² 12,7 °C 17,2 °C 4,8 km/h
01.09.2026 20:45 17,4 °C 74 % 1019,7 hPa 0,0 l/m² 1,6 km/h NW 315 ° 0 min 0 W/m² 12,7 °C 17,4 °C 3,2 km/h
01.09.2026 20:40 17,5 °C 74 % 1019,6 hPa 0,0 l/m² 1,6 km/h NW 315 ° 0 min 0 W/m² 12,8 °C 17,5 °C 4,8 km/h
01.09.2026 20:35 17,7 °C 73 % 1019,6 hPa 0,0 l/m² 3,2 km/h NW 315 ° 0 min 0 W/m² 12,8 °C 17,7 °C 4,8 km/h
01.09.2026 20:30 17,9 °C 72 % 1019,7 hPa 0,0 l/m² 3,2 km/h NW 315 ° 0 min 0 W/m² 12,8 °C 17,9 °C 4,8 km/h
01.09.2026 20:25 18,1 °C 71 % 1019,5 hPa 0,0 l/m² 3,2 km/h W-NW 292 ° 0 min 0 W/m² 12,8 °C 18,1 °C 4,8 km/h
01.09.2026 20:20 18,3 °C 70 % 1019,4 hPa 0,0 l/m² 3,2 km/h W-NW 292 ° 0 min 0 W/m² 12,7 °C 18,3 °C 4,8 km/h
01.09.2026 20:15 18,7 °C 68 % 1019,3 hPa 0,0 l/m² 3,2 km/h W-NW 292 ° 0 min 0 W/m² 12,7 °C 18,7 °C 4,8 km/h
01.09.2026 20:10 18,9 °C 67 % 1019,3 hPa 0,0 l/m² 1,6 km/h W 270 ° 0 min 0 W/m² 12,6 °C 18,9 °C 3,2 km/h
01.09.2026 20:05 19,6 °C 65 % 1019,3 hPa 0,0 l/m² 0,0 km/h W 270 ° 0 min 0 W/m² 12,8 °C 19,6 °C 3,2 km/h
01.09.2026 20:00 19,8 °C 63 % 1019,3 hPa 0,0 l/m² 0,0 km/h W 270 ° 0 min 0 W/m² 12,5 °C 19,8 °C 1,6 km/h
01.09.2026 19:55 19,8 °C 65 % 1019,3 hPa 0,0 l/m² 1,6 km/h W 270 ° 0 min 5 W/m² 13,0 °C 19,8 °C 3,2 km/h
01.09.2026 19:50 20,3 °C 61 % 1019,2 hPa 0,0 l/m² 0,0 km/h W 270 ° 0 min 7 W/m² 12,5 °C 20,3 °C 1,6 km/h
01.09.2026 19:45 20,5 °C 60 % 1019,2 hPa 0,0 l/m² 0,0 km/h W 270 ° 0 min 11 W/m² 12,5 °C 20,5 °C 1,6 km/h
01.09.2026 19:40 20,7 °C 61 % 1019,1 hPa 0,0 l/m² 0,0 km/h W 270 ° 5 min 14 W/m² 12,9 °C 20,7 °C 3,2 km/h
01.09.2026 19:35 20,8 °C 61 % 1019,1 hPa 0,0 l/m² 0,0 km/h W 270 ° 0 min 21 W/m² 13,0 °C 20,8 °C 1,6 km/h
01.09.2026 19:30 21,0 °C 60 % 1019,3 hPa 0,0 l/m² 1,6 km/h W 270 ° 0 min 26 W/m² 12,9 °C 21,0 °C 4,8 km/h
01.09.2026 19:25 21,2 °C 59 % 1019,2 hPa 0,0 l/m² 3,2 km/h W 270 ° 0 min 26 W/m² 12,9 °C 21,2 °C 4,8 km/h
01.09.2026 19:20 21,3 °C 58 % 1019,1 hPa 0,0 l/m² 3,2 km/h W 270 ° 0 min 35 W/m² 12,7 °C 21,3 °C 9,7 km/h
01.09.2026 19:15 21,3 °C 58 % 1019,3 hPa 0,0 l/m² 1,6 km/h W 270 ° 0 min 39 W/m² 12,7 °C 21,3 °C 3,2 km/h
01.09.2026 19:10 21,4 °C 58 % 1019,2 hPa 0,0 l/m² 1,6 km/h W 270 ° 0 min 32 W/m² 12,8 °C 21,4 °C 3,2 km/h
01.09.2026 19:05 21,6 °C 57 % 1019,2 hPa 0,0 l/m² 0,0 km/h W 270 ° 0 min 39 W/m² 12,7 °C 21,6 °C 1,6 km/h
01.09.2026 19:00 21,6 °C 57 % 1019,3 hPa 0,0 l/m² 3,2 km/h W 270 ° 0 min 44 W/m² 12,7 °C 21,6 °C 4,8 km/h
01.09.2026 18:55 21,7 °C 57 % 1019,2 hPa 0,0 l/m² 1,6 km/h W 270 ° 0 min 47 W/m² 12,8 °C 21,7 °C 3,2 km/h
01.09.2026 18:50 21,8 °C 57 % 1019,2 hPa 0,0 l/m² 3,2 km/h W 270 ° 0 min 60 W/m² 12,9 °C 21,8 °C 4,8 km/h
01.09.2026 18:45 21,7 °C 57 % 1019,2 hPa 0,0 l/m² 1,6 km/h W 270 ° 0 min 62 W/m² 12,8 °C 21,7 °C 4,8 km/h
01.09.2026 18:40 21,7 °C 56 % 1019,2 hPa 0,0 l/m² 1,6 km/h W 270 ° 0 min 69 W/m² 12,5 °C 21,7 °C 4,8 km/h
01.09.2026 18:35 21,8 °C 56 % 1019,2 hPa 0,0 l/m² 3,2 km/h W 270 ° 0 min 60 W/m² 12,6 °C 21,8 °C 9,7 km/h
01.09.2026 18:30 21,9 °C 55 % 1019,0 hPa 0,0 l/m² 4,8 km/h W 270 ° 0 min 84 W/m² 12,4 °C 21,9 °C 11,3 km/h
01.09.2026 18:25 22,3 °C 54 % 1019,1 hPa 0,0 l/m² 6,4 km/h W 270 ° 0 min 70 W/m² 12,5 °C 22,3 °C 12,9 km/h
01.09.2026 18:20 22,7 °C 54 % 1019,1 hPa 0,0 l/m² 4,8 km/h W-SW 247 ° 0 min 118 W/m² 12,9 °C 22,7 °C 11,3 km/h
01.09.2026 18:15 22,8 °C 54 % 1019,2 hPa 0,0 l/m² 4,8 km/h W 270 ° 0 min 116 W/m² 13,0 °C 22,8 °C 11,3 km/h
01.09.2026 18:10 23,1 °C 53 % 1019,2 hPa 0,0 l/m² 4,8 km/h W-NW 292 ° 0 min 95 W/m² 13,0 °C 23,1 °C 11,3 km/h
01.09.2026 18:05 23,7 °C 52 % 1019,2 hPa 0,0 l/m² 4,8 km/h W 270 ° 0 min 116 W/m² 13,2 °C 23,7 °C 6,4 km/h
01.09.2026 18:00 23,5 °C 54 % 1019,1 hPa 0,0 l/m² 4,8 km/h W 270 ° 0 min 146 W/m² 13,6 °C 23,5 °C 11,3 km/h
01.09.2026 17:55 23,7 °C 52 % 1019,2 hPa 0,0 l/m² 4,8 km/h W-SW 247 ° 0 min 193 W/m² 13,2 °C 23,7 °C 11,3 km/h
01.09.2026 17:50 23,7 °C 54 % 1019,2 hPa 0,0 l/m² 6,4 km/h W-SW 247 ° 5 min 237 W/m² 13,8 °C 23,7 °C 12,9 km/h
01.09.2026 17:45 23,7 °C 52 % 1019,2 hPa 0,0 l/m² 8,0 km/h W-NW 292 ° 5 min 279 W/m² 13,2 °C 23,2 °C 14,5 km/h
01.09.2026 17:40 23,6 °C 52 % 1019,2 hPa 0,0 l/m² 8,0 km/h W-SW 247 ° 5 min 316 W/m² 13,2 °C 23,1 °C 16,1 km/h
01.09.2026 17:35 23,8 °C 51 % 1019,2 hPa 0,0 l/m² 3,2 km/h W 270 ° 5 min 334 W/m² 13,0 °C 23,8 °C 8,0 km/h
01.09.2026 17:30 23,8 °C 52 % 1019,1 hPa 0,0 l/m² 6,4 km/h W-NW 292 ° 5 min 357 W/m² 13,3 °C 23,8 °C 12,9 km/h
01.09.2026 17:25 23,6 °C 52 % 1019,2 hPa 0,0 l/m² 8,0 km/h W 270 ° 5 min 360 W/m² 13,2 °C 23,1 °C 14,5 km/h
01.09.2026 17:20 23,4 °C 52 % 1019,1 hPa 0,0 l/m² 4,8 km/h W 270 ° 5 min 362 W/m² 13,0 °C 23,4 °C 11,3 km/h
01.09.2026 17:15 23,6 °C 52 % 1019,1 hPa 0,0 l/m² 4,8 km/h W-SW 247 ° 5 min 392 W/m² 13,2 °C 23,6 °C 12,9 km/h
01.09.2026 17:10 23,7 °C 52 % 1019,2 hPa 0,0 l/m² 8,0 km/h S 180 ° 5 min 420 W/m² 13,2 °C 23,2 °C 16,1 km/h
01.09.2026 17:05 24,6 °C 51 % 1019,2 hPa 0,0 l/m² 4,8 km/h W 270 ° 5 min 434 W/m² 13,8 °C 24,6 °C 9,7 km/h
01.09.2026 17:00 23,9 °C 52 % 1019,3 hPa 0,0 l/m² 8,0 km/h W 270 ° 5 min 424 W/m² 13,4 °C 23,4 °C 17,7 km/h
01.09.2026 16:55 23,8 °C 53 % 1019,2 hPa 0,0 l/m² 6,4 km/h W 270 ° 5 min 434 W/m² 13,6 °C 23,8 °C 16,1 km/h
01.09.2026 16:50 24,1 °C 52 % 1019,2 hPa 0,0 l/m² 8,0 km/h W 270 ° 5 min 452 W/m² 13,6 °C 23,7 °C 12,9 km/h
01.09.2026 16:45 24,3 °C 51 % 1019,2 hPa 0,0 l/m² 8,0 km/h W 270 ° 5 min 464 W/m² 13,5 °C 23,9 °C 17,7 km/h
01.09.2026 16:40 24,3 °C 51 % 1019,2 hPa 0,0 l/m² 6,4 km/h W-NW 292 ° 5 min 475 W/m² 13,5 °C 24,3 °C 12,9 km/h
01.09.2026 16:35 24,2 °C 51 % 1019,1 hPa 0,0 l/m² 8,0 km/h W 270 ° 5 min 490 W/m² 13,4 °C 23,8 °C 14,5 km/h
01.09.2026 16:30 24,3 °C 52 % 1019,2 hPa 0,0 l/m² 9,7 km/h S 180 ° 5 min 519 W/m² 13,8 °C 23,5 °C 20,9 km/h
01.09.2026 16:25 24,3 °C 52 % 1019,2 hPa 0,0 l/m² 4,8 km/h W 270 ° 5 min 526 W/m² 13,8 °C 24,3 °C 11,3 km/h
01.09.2026 16:20 24,3 °C 50 % 1019,3 hPa 0,0 l/m² 8,0 km/h SW 225 ° 5 min 543 W/m² 13,2 °C 23,9 °C 14,5 km/h
01.09.2026 16:15 24,8 °C 53 % 1019,4 hPa 0,0 l/m² 4,8 km/h S 180 ° 5 min 575 W/m² 14,6 °C 24,8 °C 14,5 km/h
01.09.2026 16:10 24,2 °C 51 % 1019,4 hPa 0,0 l/m² 6,4 km/h W 270 ° 5 min 584 W/m² 13,4 °C 24,2 °C 14,5 km/h
01.09.2026 16:05 24,2 °C 52 % 1019,5 hPa 0,0 l/m² 6,4 km/h NW 315 ° 5 min 587 W/m² 13,7 °C 24,2 °C 17,7 km/h
01.09.2026 16:00 23,4 °C 55 % 1019,7 hPa 0,0 l/m² 3,2 km/h S-SW 202 ° 5 min 652 W/m² 13,8 °C 23,4 °C 8,0 km/h
01.09.2026 15:55 22,9 °C 55 % 1019,6 hPa 0,0 l/m² 6,4 km/h SW 225 ° 0 min 218 W/m² 13,4 °C 22,9 °C 12,9 km/h
01.09.2026 15:50 23,7 °C 52 % 1019,5 hPa 0,0 l/m² 12,9 km/h W-NW 292 ° 5 min 610 W/m² 13,2 °C 22,1 °C 22,5 km/h
01.09.2026 15:45 23,8 °C 53 % 1019,6 hPa 0,0 l/m² 9,7 km/h W 270 ° 5 min 621 W/m² 13,6 °C 22,9 °C 16,1 km/h
01.09.2026 15:40 23,4 °C 54 % 1019,5 hPa 0,0 l/m² 6,4 km/h W-SW 247 ° 5 min 622 W/m² 13,6 °C 23,4 °C 16,1 km/h
01.09.2026 15:35 23,3 °C 52 % 1019,7 hPa 0,0 l/m² 6,4 km/h SW 225 ° 5 min 668 W/m² 12,9 °C 23,3 °C 11,3 km/h
01.09.2026 15:30 23,9 °C 52 % 1019,7 hPa 0,0 l/m² 9,7 km/h SW 225 ° 5 min 666 W/m² 13,4 °C 23,0 °C 17,7 km/h
01.09.2026 15:25 24,2 °C 54 % 1019,8 hPa 0,0 l/m² 4,8 km/h SW 225 ° 5 min 663 W/m² 14,3 °C 24,2 °C 9,7 km/h
01.09.2026 15:20 24,2 °C 52 % 1019,8 hPa 0,0 l/m² 3,2 km/h S-SW 202 ° 5 min 696 W/m² 13,7 °C 24,2 °C 8,0 km/h
01.09.2026 15:15 22,9 °C 58 % 1019,9 hPa 0,0 l/m² 4,8 km/h W-NW 292 ° 5 min 714 W/m² 14,2 °C 22,9 °C 11,3 km/h
01.09.2026 15:10 22,9 °C 55 % 1020,0 hPa 0,0 l/m² 6,4 km/h W-NW 292 ° 0 min 213 W/m² 13,4 °C 22,9 °C 14,5 km/h
01.09.2026 15:05 24,4 °C 53 % 1020,0 hPa 0,0 l/m² 6,4 km/h W-NW 292 ° 5 min 770 W/m² 14,2 °C 24,4 °C 14,5 km/h
01.09.2026 15:00 24,3 °C 53 % 1020,0 hPa 0,0 l/m² 4,8 km/h W-SW 247 ° 5 min 798 W/m² 14,1 °C 24,3 °C 11,3 km/h
_ Min-Zeit 06:45 16:20 18:30 - 19:05 - - - - 06:45 06:45 07:55
Minimum _ 11,4 °C 50 % 1019,0 hPa - 0,0 km/h - - - - 10,0 °C 11,4 °C 0,0 km/h
_ Max-Zeit 16:20 07:15 10:40 15:00 15:50 - - 15:00 14:00 11:20 16:15 15:50
Maximum _ 24,9 °C 92 % 1021,0 hPa 0,0 l/m² 12,9 km/h
W-NW
- - 5 min 960 W/m² 15,9 °C 24,8 °C 22,5 km/h
W-NW
Durchschnitt _ 18,4 °C 72 % 1020,2 hPa #0,0 l/m² 3,1 km/h N-NO - #5:15 h 416 W/m² 12,9 °C 18,3 °C 6,8 km/h